sensor_id;sensor_type;location;lat;lon;timestamp;temperature;humidity
13806;DHT22;6974;53.606;9.872;2023-05-07T00:01:45;10.60;99.90
13806;DHT22;6974;53.606;9.872;2023-05-07T00:04:12;10.70;99.90
13806;DHT22;6974;53.606;9.872;2023-05-07T00:06:40;10.70;99.90
13806;DHT22;6974;53.606;9.872;2023-05-07T00:09:07;10.60;99.90
13806;DHT22;6974;53.606;9.872;2023-05-07T00:11:34;10.60;99.90
13806;DHT22;6974;53.606;9.872;2023-05-07T00:14:01;10.60;99.90
13806;DHT22;6974;53.606;9.872;2023-05-07T00:16:27;10.60;99.90
13806;DHT22;6974;53.606;9.872;2023-05-07T00:18:54;10.60;99.90
13806;DHT22;6974;53.606;9.872;2023-05-07T00:21:21;10.60;99.90
13806;DHT22;6974;53.606;9.872;2023-05-07T00:23:49;10.60;99.90
13806;DHT22;6974;53.606;9.872;2023-05-07T00:26:16;10.50;99.90
13806;DHT22;6974;53.606;9.872;2023-05-07T00:28:43;10.50;99.90
13806;DHT22;6974;53.606;9.872;2023-05-07T00:31:10;10.50;99.90
13806;DHT22;6974;53.606;9.872;2023-05-07T00:33:38;10.50;99.90
13806;DHT22;6974;53.606;9.872;2023-05-07T00:36:05;10.50;99.90
13806;DHT22;6974;53.606;9.872;2023-05-07T00:38:32;10.50;99.90
13806;DHT22;6974;53.606;9.872;2023-05-07T00:41:00;10.60;99.90
13806;DHT22;6974;53.606;9.872;2023-05-07T00:43:27;10.50;99.90
13806;DHT22;6974;53.606;9.872;2023-05-07T00:45:55;10.50;99.90
13806;DHT22;6974;53.606;9.872;2023-05-07T00:48:22;10.50;99.90
13806;DHT22;6974;53.606;9.872;2023-05-07T00:50:49;10.50;99.90
13806;DHT22;6974;53.606;9.872;2023-05-07T00:53:17;10.50;99.90
13806;DHT22;6974;53.606;9.872;2023-05-07T00:55:43;10.50;99.90
13806;DHT22;6974;53.606;9.872;2023-05-07T00:58:12;10.50;99.90
13806;DHT22;6974;53.606;9.872;2023-05-07T01:00:39;10.50;99.90
13806;DHT22;6974;53.606;9.872;2023-05-07T01:03:06;10.50;99.90
13806;DHT22;6974;53.606;9.872;2023-05-07T01:05:33;10.50;99.90
13806;DHT22;6974;53.606;9.872;2023-05-07T01:08:00;10.60;99.90
13806;DHT22;6974;53.606;9.872;2023-05-07T01:10:28;10.60;99.90
13806;DHT22;6974;53.606;9.872;2023-05-07T01:12:57;10.60;99.90
13806;DHT22;6974;53.606;9.872;2023-05-07T01:15:26;10.60;99.90
13806;DHT22;6974;53.606;9.872;2023-05-07T01:17:53;10.60;99.90
13806;DHT22;6974;53.606;9.872;2023-05-07T01:20:22;10.60;99.90
13806;DHT22;6974;53.606;9.872;2023-05-07T01:22:51;10.60;99.90
13806;DHT22;6974;53.606;9.872;2023-05-07T01:25:18;10.60;99.90
13806;DHT22;6974;53.606;9.872;2023-05-07T01:27:45;10.70;99.90
13806;DHT22;6974;53.606;9.872;2023-05-07T01:30:12;10.60;99.90
13806;DHT22;6974;53.606;9.872;2023-05-07T01:32:43;10.60;99.90
13806;DHT22;6974;53.606;9.872;2023-05-07T01:35:12;10.60;99.90
13806;DHT22;6974;53.606;9.872;2023-05-07T01:37:40;10.70;99.90
13806;DHT22;6974;53.606;9.872;2023-05-07T01:40:10;10.70;99.90
13806;DHT22;6974;53.606;9.872;2023-05-07T01:42:38;10.80;99.90
13806;DHT22;6974;53.606;9.872;2023-05-07T01:45:07;10.70;99.90
13806;DHT22;6974;53.606;9.872;2023-05-07T01:47:33;10.80;99.90
13806;DHT22;6974;53.606;9.872;2023-05-07T01:50:01;10.70;99.90
13806;DHT22;6974;53.606;9.872;2023-05-07T01:52:28;10.70;99.90
13806;DHT22;6974;53.606;9.872;2023-05-07T01:54:55;10.70;99.90
13806;DHT22;6974;53.606;9.872;2023-05-07T01:57:23;10.80;99.90
13806;DHT22;6974;53.606;9.872;2023-05-07T01:59:50;10.70;99.90
13806;DHT22;6974;53.606;9.872;2023-05-07T02:02:17;10.70;99.90
13806;DHT22;6974;53.606;9.872;2023-05-07T02:04:44;10.70;99.90
13806;DHT22;6974;53.606;9.872;2023-05-07T02:07:11;10.70;99.90
13806;DHT22;6974;53.606;9.872;2023-05-07T02:09:38;10.70;99.90
13806;DHT22;6974;53.606;9.872;2023-05-07T02:12:05;10.70;99.90
13806;DHT22;6974;53.606;9.872;2023-05-07T02:14:33;10.60;99.90
13806;DHT22;6974;53.606;9.872;2023-05-07T02:17:00;10.70;99.90
13806;DHT22;6974;53.606;9.872;2023-05-07T02:19:27;10.70;99.90
13806;DHT22;6974;53.606;9.872;2023-05-07T02:21:53;10.70;99.90
13806;DHT22;6974;53.606;9.872;2023-05-07T02:24:21;10.70;99.90
13806;DHT22;6974;53.606;9.872;2023-05-07T02:26:47;10.70;99.90
13806;DHT22;6974;53.606;9.872;2023-05-07T02:29:14;10.70;99.90
13806;DHT22;6974;53.606;9.872;2023-05-07T02:31:42;10.70;99.90
13806;DHT22;6974;53.606;9.872;2023-05-07T02:34:09;10.60;99.90
13806;DHT22;6974;53.606;9.872;2023-05-07T02:36:36;10.60;99.90
13806;DHT22;6974;53.606;9.872;2023-05-07T02:39:03;10.60;99.90
13806;DHT22;6974;53.606;9.872;2023-05-07T02:41:30;10.50;99.90
13806;DHT22;6974;53.606;9.872;2023-05-07T02:43:57;10.50;99.90
13806;DHT22;6974;53.606;9.872;2023-05-07T02:46:24;10.50;99.90
13806;DHT22;6974;53.606;9.872;2023-05-07T02:48:52;10.50;99.90
13806;DHT22;6974;53.606;9.872;2023-05-07T02:51:20;10.50;99.90
13806;DHT22;6974;53.606;9.872;2023-05-07T02:53:47;10.50;99.90
13806;DHT22;6974;53.606;9.872;2023-05-07T02:56:15;10.40;99.90
13806;DHT22;6974;53.606;9.872;2023-05-07T02:58:42;10.50;99.90
13806;DHT22;6974;53.606;9.872;2023-05-07T03:01:09;10.50;99.90
13806;DHT22;6974;53.606;9.872;2023-05-07T03:03:36;10.50;99.90
13806;DHT22;6974;53.606;9.872;2023-05-07T03:06:04;10.40;99.90
13806;DHT22;6974;53.606;9.872;2023-05-07T03:08:32;10.40;99.90
13806;DHT22;6974;53.606;9.872;2023-05-07T03:10:58;10.40;99.90
13806;DHT22;6974;53.606;9.872;2023-05-07T03:13:25;10.40;99.90
13806;DHT22;6974;53.606;9.872;2023-05-07T03:15:52;10.30;99.90
13806;DHT22;6974;53.606;9.872;2023-05-07T03:18:19;10.40;99.90
13806;DHT22;6974;53.606;9.872;2023-05-07T03:20:47;10.40;99.90
13806;DHT22;6974;53.606;9.872;2023-05-07T03:23:16;10.40;99.90
13806;DHT22;6974;53.606;9.872;2023-05-07T03:25:43;10.40;99.90
13806;DHT22;6974;53.606;9.872;2023-05-07T03:28:09;10.50;99.90
13806;DHT22;6974;53.606;9.872;2023-05-07T03:30:36;10.40;99.90
13806;DHT22;6974;53.606;9.872;2023-05-07T03:33:03;10.50;99.90
13806;DHT22;6974;53.606;9.872;2023-05-07T03:35:30;10.50;99.90
13806;DHT22;6974;53.606;9.872;2023-05-07T03:37:57;10.50;99.90
13806;DHT22;6974;53.606;9.872;2023-05-07T03:40:25;10.40;99.90
13806;DHT22;6974;53.606;9.872;2023-05-07T03:42:52;10.40;99.90
13806;DHT22;6974;53.606;9.872;2023-05-07T03:45:19;10.40;99.90
13806;DHT22;6974;53.606;9.872;2023-05-07T03:47:46;10.40;99.90
13806;DHT22;6974;53.606;9.872;2023-05-07T03:50:13;10.40;99.90
13806;DHT22;6974;53.606;9.872;2023-05-07T03:52:39;10.40;99.90
13806;DHT22;6974;53.606;9.872;2023-05-07T03:55:07;10.40;99.90
13806;DHT22;6974;53.606;9.872;2023-05-07T03:57:35;10.40;99.90
13806;DHT22;6974;53.606;9.872;2023-05-07T04:00:03;10.40;99.90
13806;DHT22;6974;53.606;9.872;2023-05-07T04:02:32;10.40;99.90
13806;DHT22;6974;53.606;9.872;2023-05-07T04:04:59;10.40;99.90
13806;DHT22;6974;53.606;9.872;2023-05-07T04:07:26;10.40;99.90
13806;DHT22;6974;53.606;9.872;2023-05-07T04:09:53;10.40;99.90
13806;DHT22;6974;53.606;9.872;2023-05-07T04:12:20;10.40;99.90
13806;DHT22;6974;53.606;9.872;2023-05-07T04:14:48;10.40;99.90
13806;DHT22;6974;53.606;9.872;2023-05-07T04:17:15;10.40;99.90
13806;DHT22;6974;53.606;9.872;2023-05-07T04:19:42;10.40;99.90
13806;DHT22;6974;53.606;9.872;2023-05-07T04:22:11;10.50;99.90
13806;DHT22;6974;53.606;9.872;2023-05-07T04:24:38;10.40;99.90
13806;DHT22;6974;53.606;9.872;2023-05-07T04:27:05;10.40;99.90
13806;DHT22;6974;53.606;9.872;2023-05-07T04:29:32;10.40;99.90
13806;DHT22;6974;53.606;9.872;2023-05-07T04:32:00;10.50;99.90
13806;DHT22;6974;53.606;9.872;2023-05-07T04:34:27;10.50;99.90
13806;DHT22;6974;53.606;9.872;2023-05-07T04:36:53;10.50;99.90
13806;DHT22;6974;53.606;9.872;2023-05-07T04:39:20;10.50;99.90
13806;DHT22;6974;53.606;9.872;2023-05-07T04:41:47;10.60;99.90
13806;DHT22;6974;53.606;9.872;2023-05-07T04:44:14;10.60;99.90
13806;DHT22;6974;53.606;9.872;2023-05-07T04:46:42;10.60;99.90
13806;DHT22;6974;53.606;9.872;2023-05-07T04:49:10;10.50;99.90
13806;DHT22;6974;53.606;9.872;2023-05-07T04:51:37;10.50;99.90
13806;DHT22;6974;53.606;9.872;2023-05-07T04:56:33;10.60;99.90
13806;DHT22;6974;53.606;9.872;2023-05-07T04:59:00;10.60;99.90
13806;DHT22;6974;53.606;9.872;2023-05-07T05:01:27;10.60;99.90
13806;DHT22;6974;53.606;9.872;2023-05-07T05:03:54;10.60;99.90
13806;DHT22;6974;53.606;9.872;2023-05-07T05:06:23;10.60;99.90
13806;DHT22;6974;53.606;9.872;2023-05-07T05:08:52;10.70;99.90
13806;DHT22;6974;53.606;9.872;2023-05-07T05:11:19;10.60;99.90
13806;DHT22;6974;53.606;9.872;2023-05-07T05:13:46;10.70;99.90
13806;DHT22;6974;53.606;9.872;2023-05-07T05:16:14;10.70;99.90
13806;DHT22;6974;53.606;9.872;2023-05-07T05:18:42;10.70;99.90
13806;DHT22;6974;53.606;9.872;2023-05-07T05:21:10;10.70;99.90
13806;DHT22;6974;53.606;9.872;2023-05-07T05:23:38;10.70;99.90
13806;DHT22;6974;53.606;9.872;2023-05-07T05:26:05;10.70;99.90
13806;DHT22;6974;53.606;9.872;2023-05-07T05:28:33;10.70;99.90
13806;DHT22;6974;53.606;9.872;2023-05-07T05:31:00;10.70;99.90
13806;DHT22;6974;53.606;9.872;2023-05-07T05:33:27;10.70;99.90
13806;DHT22;6974;53.606;9.872;2023-05-07T05:35:54;10.70;99.90
13806;DHT22;6974;53.606;9.872;2023-05-07T05:38:21;10.80;99.90
13806;DHT22;6974;53.606;9.872;2023-05-07T05:40:49;10.70;99.90
13806;DHT22;6974;53.606;9.872;2023-05-07T05:43:16;10.80;99.90
13806;DHT22;6974;53.606;9.872;2023-05-07T05:45:44;10.80;99.90
13806;DHT22;6974;53.606;9.872;2023-05-07T05:48:11;10.70;99.90
13806;DHT22;6974;53.606;9.872;2023-05-07T05:50:37;10.70;99.90
13806;DHT22;6974;53.606;9.872;2023-05-07T05:53:05;10.70;99.90
13806;DHT22;6974;53.606;9.872;2023-05-07T05:55:32;10.80;99.90
13806;DHT22;6974;53.606;9.872;2023-05-07T05:58:01;10.70;99.90
13806;DHT22;6974;53.606;9.872;2023-05-07T06:00:28;10.80;99.90
13806;DHT22;6974;53.606;9.872;2023-05-07T06:02:55;10.80;99.90
13806;DHT22;6974;53.606;9.872;2023-05-07T06:05:22;10.80;99.90
13806;DHT22;6974;53.606;9.872;2023-05-07T06:07:49;10.80;99.90
13806;DHT22;6974;53.606;9.872;2023-05-07T06:10:16;10.80;99.90
13806;DHT22;6974;53.606;9.872;2023-05-07T06:12:45;10.70;99.90
13806;DHT22;6974;53.606;9.872;2023-05-07T06:15:13;10.80;99.90
13806;DHT22;6974;53.606;9.872;2023-05-07T06:17:40;10.70;99.90
13806;DHT22;6974;53.606;9.872;2023-05-07T06:20:08;10.70;99.90
13806;DHT22;6974;53.606;9.872;2023-05-07T06:22:35;10.70;99.90
13806;DHT22;6974;53.606;9.872;2023-05-07T06:25:02;10.80;99.90
13806;DHT22;6974;53.606;9.872;2023-05-07T06:27:29;10.80;99.90
13806;DHT22;6974;53.606;9.872;2023-05-07T06:29:56;10.80;99.90
13806;DHT22;6974;53.606;9.872;2023-05-07T06:32:24;10.80;99.90
13806;DHT22;6974;53.606;9.872;2023-05-07T06:34:51;10.80;99.90
13806;DHT22;6974;53.606;9.872;2023-05-07T06:37:19;10.90;99.90
13806;DHT22;6974;53.606;9.872;2023-05-07T06:39:45;10.90;99.90
13806;DHT22;6974;53.606;9.872;2023-05-07T06:42:14;11.00;99.90
13806;DHT22;6974;53.606;9.872;2023-05-07T06:44:41;11.00;99.90
13806;DHT22;6974;53.606;9.872;2023-05-07T06:47:08;11.00;99.90
13806;DHT22;6974;53.606;9.872;2023-05-07T06:49:37;11.00;99.90
13806;DHT22;6974;53.606;9.872;2023-05-07T06:52:04;11.00;99.90
13806;DHT22;6974;53.606;9.872;2023-05-07T06:54:31;11.10;99.90
13806;DHT22;6974;53.606;9.872;2023-05-07T06:56:59;11.10;99.90
13806;DHT22;6974;53.606;9.872;2023-05-07T06:59:26;11.10;99.90
13806;DHT22;6974;53.606;9.872;2023-05-07T07:01:54;11.10;99.90
13806;DHT22;6974;53.606;9.872;2023-05-07T07:04:21;11.20;99.90
13806;DHT22;6974;53.606;9.872;2023-05-07T07:06:52;11.20;99.90
13806;DHT22;6974;53.606;9.872;2023-05-07T07:09:19;11.20;99.90
13806;DHT22;6974;53.606;9.872;2023-05-07T07:11:47;11.20;99.90
13806;DHT22;6974;53.606;9.872;2023-05-07T07:14:14;11.20;99.90
13806;DHT22;6974;53.606;9.872;2023-05-07T07:16:41;11.20;99.90
13806;DHT22;6974;53.606;9.872;2023-05-07T07:19:08;11.20;99.90
13806;DHT22;6974;53.606;9.872;2023-05-07T07:21:35;11.20;99.90
13806;DHT22;6974;53.606;9.872;2023-05-07T07:24:04;11.20;99.90
13806;DHT22;6974;53.606;9.872;2023-05-07T07:26:31;11.20;99.90
13806;DHT22;6974;53.606;9.872;2023-05-07T07:28:58;11.30;99.90
13806;DHT22;6974;53.606;9.872;2023-05-07T07:31:25;11.30;99.90
13806;DHT22;6974;53.606;9.872;2023-05-07T07:33:52;11.30;99.90
13806;DHT22;6974;53.606;9.872;2023-05-07T07:36:21;11.30;99.90
13806;DHT22;6974;53.606;9.872;2023-05-07T07:38:48;11.40;99.90
13806;DHT22;6974;53.606;9.872;2023-05-07T07:41:16;11.40;99.90
13806;DHT22;6974;53.606;9.872;2023-05-07T07:43:45;11.50;99.90
13806;DHT22;6974;53.606;9.872;2023-05-07T07:46:12;11.50;99.90
13806;DHT22;6974;53.606;9.872;2023-05-07T07:48:39;11.50;99.90
13806;DHT22;6974;53.606;9.872;2023-05-07T07:51:08;11.50;99.90
13806;DHT22;6974;53.606;9.872;2023-05-07T07:53:36;11.60;99.90
13806;DHT22;6974;53.606;9.872;2023-05-07T07:56:04;11.60;99.90
13806;DHT22;6974;53.606;9.872;2023-05-07T07:58:32;11.60;99.90
13806;DHT22;6974;53.606;9.872;2023-05-07T08:01:02;11.70;99.90
13806;DHT22;6974;53.606;9.872;2023-05-07T08:03:29;11.70;99.90
13806;DHT22;6974;53.606;9.872;2023-05-07T08:05:58;11.70;99.90
13806;DHT22;6974;53.606;9.872;2023-05-07T08:08:25;11.70;99.90
13806;DHT22;6974;53.606;9.872;2023-05-07T08:10:52;11.70;99.90
13806;DHT22;6974;53.606;9.872;2023-05-07T08:13:19;11.80;99.90
13806;DHT22;6974;53.606;9.872;2023-05-07T08:15:48;11.80;99.90
13806;DHT22;6974;53.606;9.872;2023-05-07T08:18:15;11.90;99.90
13806;DHT22;6974;53.606;9.872;2023-05-07T08:20:42;11.90;99.90
13806;DHT22;6974;53.606;9.872;2023-05-07T08:23:09;11.90;99.90
13806;DHT22;6974;53.606;9.872;2023-05-07T08:25:37;11.80;99.90
13806;DHT22;6974;53.606;9.872;2023-05-07T08:28:04;11.80;99.90
13806;DHT22;6974;53.606;9.872;2023-05-07T08:30:32;11.80;99.90
13806;DHT22;6974;53.606;9.872;2023-05-07T08:33:02;11.80;99.90
13806;DHT22;6974;53.606;9.872;2023-05-07T08:35:29;11.80;99.90
13806;DHT22;6974;53.606;9.872;2023-05-07T08:37:55;11.90;99.90
13806;DHT22;6974;53.606;9.872;2023-05-07T08:40:25;11.90;99.90
13806;DHT22;6974;53.606;9.872;2023-05-07T08:42:53;11.90;99.90
13806;DHT22;6974;53.606;9.872;2023-05-07T08:45:20;11.90;99.90
13806;DHT22;6974;53.606;9.872;2023-05-07T08:47:51;11.90;99.90
13806;DHT22;6974;53.606;9.872;2023-05-07T08:50:20;12.00;99.90
13806;DHT22;6974;53.606;9.872;2023-05-07T08:52:47;12.00;99.90
13806;DHT22;6974;53.606;9.872;2023-05-07T08:55:15;12.00;99.90
13806;DHT22;6974;53.606;9.872;2023-05-07T08:57:42;12.00;99.90
13806;DHT22;6974;53.606;9.872;2023-05-07T09:00:10;12.00;99.90
13806;DHT22;6974;53.606;9.872;2023-05-07T09:02:39;12.00;99.90
13806;DHT22;6974;53.606;9.872;2023-05-07T09:05:07;12.10;99.90
13806;DHT22;6974;53.606;9.872;2023-05-07T09:07:36;12.10;99.90
13806;DHT22;6974;53.606;9.872;2023-05-07T09:10:03;12.10;99.90
13806;DHT22;6974;53.606;9.872;2023-05-07T09:12:31;12.10;99.90
13806;DHT22;6974;53.606;9.872;2023-05-07T09:15:00;12.10;99.90
13806;DHT22;6974;53.606;9.872;2023-05-07T09:17:28;12.10;99.90
13806;DHT22;6974;53.606;9.872;2023-05-07T09:19:55;12.20;99.90
13806;DHT22;6974;53.606;9.872;2023-05-07T09:22:22;12.20;99.90
13806;DHT22;6974;53.606;9.872;2023-05-07T09:24:51;12.20;99.90
13806;DHT22;6974;53.606;9.872;2023-05-07T09:27:18;12.30;99.90
13806;DHT22;6974;53.606;9.872;2023-05-07T09:29:45;12.30;99.90
13806;DHT22;6974;53.606;9.872;2023-05-07T09:32:12;12.40;99.90
13806;DHT22;6974;53.606;9.872;2023-05-07T09:34:39;12.40;99.90
13806;DHT22;6974;53.606;9.872;2023-05-07T09:37:06;12.40;99.90
13806;DHT22;6974;53.606;9.872;2023-05-07T09:39:40;12.40;99.90
13806;DHT22;6974;53.606;9.872;2023-05-07T09:42:09;12.40;99.90
13806;DHT22;6974;53.606;9.872;2023-05-07T09:44:37;12.40;99.90
13806;DHT22;6974;53.606;9.872;2023-05-07T09:47:05;12.50;99.90
13806;DHT22;6974;53.606;9.872;2023-05-07T09:49:36;12.60;99.90
13806;DHT22;6974;53.606;9.872;2023-05-07T09:52:04;12.60;99.90
13806;DHT22;6974;53.606;9.872;2023-05-07T09:54:35;12.70;99.90
13806;DHT22;6974;53.606;9.872;2023-05-07T09:57:04;12.70;99.90
13806;DHT22;6974;53.606;9.872;2023-05-07T09:59:37;12.70;99.90
13806;DHT22;6974;53.606;9.872;2023-05-07T10:02:05;12.70;99.90
13806;DHT22;6974;53.606;9.872;2023-05-07T10:04:32;12.70;99.90
13806;DHT22;6974;53.606;9.872;2023-05-07T10:06:59;12.70;99.90
13806;DHT22;6974;53.606;9.872;2023-05-07T10:09:26;12.70;99.90
13806;DHT22;6974;53.606;9.872;2023-05-07T10:11:54;12.70;99.90
13806;DHT22;6974;53.606;9.872;2023-05-07T10:14:22;12.70;99.90
13806;DHT22;6974;53.606;9.872;2023-05-07T10:16:51;12.80;99.90
13806;DHT22;6974;53.606;9.872;2023-05-07T10:19:22;12.80;99.90
13806;DHT22;6974;53.606;9.872;2023-05-07T10:21:55;12.80;99.90
13806;DHT22;6974;53.606;9.872;2023-05-07T10:24:26;12.80;99.90
13806;DHT22;6974;53.606;9.872;2023-05-07T10:26:55;12.90;99.90
13806;DHT22;6974;53.606;9.872;2023-05-07T10:29:33;12.80;99.90
13806;DHT22;6974;53.606;9.872;2023-05-07T10:32:11;12.90;99.90
13806;DHT22;6974;53.606;9.872;2023-05-07T10:34:43;12.90;99.90
13806;DHT22;6974;53.606;9.872;2023-05-07T10:37:11;12.90;99.90
13806;DHT22;6974;53.606;9.872;2023-05-07T10:39:39;12.90;99.90
13806;DHT22;6974;53.606;9.872;2023-05-07T10:42:08;13.00;99.90
13806;DHT22;6974;53.606;9.872;2023-05-07T10:44:35;13.00;99.90
13806;DHT22;6974;53.606;9.872;2023-05-07T10:47:06;13.00;99.90
13806;DHT22;6974;53.606;9.872;2023-05-07T10:49:35;13.00;99.90
13806;DHT22;6974;53.606;9.872;2023-05-07T10:52:13;13.00;99.90
13806;DHT22;6974;53.606;9.872;2023-05-07T10:54:41;13.00;99.90
13806;DHT22;6974;53.606;9.872;2023-05-07T10:57:33;13.00;99.90
13806;DHT22;6974;53.606;9.872;2023-05-07T11:00:01;13.00;99.90
13806;DHT22;6974;53.606;9.872;2023-05-07T11:05:22;13.00;99.90
13806;DHT22;6974;53.606;9.872;2023-05-07T11:07:54;13.10;99.90
13806;DHT22;6974;53.606;9.872;2023-05-07T11:10:22;13.10;99.90
13806;DHT22;6974;53.606;9.872;2023-05-07T11:12:53;13.20;99.90
13806;DHT22;6974;53.606;9.872;2023-05-07T11:15:47;13.20;99.90
13806;DHT22;6974;53.606;9.872;2023-05-07T11:18:16;13.30;99.90
13806;DHT22;6974;53.606;9.872;2023-05-07T11:20:56;13.40;99.90
13806;DHT22;6974;53.606;9.872;2023-05-07T11:23:55;13.50;99.90
13806;DHT22;6974;53.606;9.872;2023-05-07T11:26:24;13.50;99.90
13806;DHT22;6974;53.606;9.872;2023-05-07T11:28:55;13.60;99.90
13806;DHT22;6974;53.606;9.872;2023-05-07T11:31:24;13.60;99.90
13806;DHT22;6974;53.606;9.872;2023-05-07T11:33:53;13.60;99.90
13806;DHT22;6974;53.606;9.872;2023-05-07T11:36:23;13.60;99.90
13806;DHT22;6974;53.606;9.872;2023-05-07T11:38:51;13.70;99.90
13806;DHT22;6974;53.606;9.872;2023-05-07T11:41:18;13.80;99.90
13806;DHT22;6974;53.606;9.872;2023-05-07T11:43:57;13.90;99.90
13806;DHT22;6974;53.606;9.872;2023-05-07T11:46:24;13.90;99.90
13806;DHT22;6974;53.606;9.872;2023-05-07T11:48:51;13.90;99.90
13806;DHT22;6974;53.606;9.872;2023-05-07T11:51:19;13.90;99.90
13806;DHT22;6974;53.606;9.872;2023-05-07T11:53:49;14.00;99.90
13806;DHT22;6974;53.606;9.872;2023-05-07T11:56:18;14.10;99.90
13806;DHT22;6974;53.606;9.872;2023-05-07T11:58:46;14.20;99.90
13806;DHT22;6974;53.606;9.872;2023-05-07T12:01:14;14.20;99.90
13806;DHT22;6974;53.606;9.872;2023-05-07T12:03:43;14.30;99.90
13806;DHT22;6974;53.606;9.872;2023-05-07T12:06:12;14.30;99.90
13806;DHT22;6974;53.606;9.872;2023-05-07T12:08:41;14.30;99.90
13806;DHT22;6974;53.606;9.872;2023-05-07T12:11:13;14.30;99.90
13806;DHT22;6974;53.606;9.872;2023-05-07T12:13:42;14.40;99.90
13806;DHT22;6974;53.606;9.872;2023-05-07T12:16:11;14.40;99.90
13806;DHT22;6974;53.606;9.872;2023-05-07T12:18:40;14.40;99.90
13806;DHT22;6974;53.606;9.872;2023-05-07T12:21:07;14.50;99.90
13806;DHT22;6974;53.606;9.872;2023-05-07T12:23:36;14.50;99.90
13806;DHT22;6974;53.606;9.872;2023-05-07T12:26:03;14.50;99.90
13806;DHT22;6974;53.606;9.872;2023-05-07T12:28:36;14.60;99.90
13806;DHT22;6974;53.606;9.872;2023-05-07T12:31:04;14.60;99.90
13806;DHT22;6974;53.606;9.872;2023-05-07T12:33:32;14.70;99.90
13806;DHT22;6974;53.606;9.872;2023-05-07T12:36:03;14.60;99.90
13806;DHT22;6974;53.606;9.872;2023-05-07T12:38:36;14.70;99.90
13806;DHT22;6974;53.606;9.872;2023-05-07T12:41:04;14.70;99.90
13806;DHT22;6974;53.606;9.872;2023-05-07T12:43:32;14.70;99.90
13806;DHT22;6974;53.606;9.872;2023-05-07T12:46:03;14.80;99.90
13806;DHT22;6974;53.606;9.872;2023-05-07T12:48:30;14.90;99.90
13806;DHT22;6974;53.606;9.872;2023-05-07T12:51:00;14.80;99.90
13806;DHT22;6974;53.606;9.872;2023-05-07T12:53:28;14.90;99.90
13806;DHT22;6974;53.606;9.872;2023-05-07T12:55:57;14.90;99.90
13806;DHT22;6974;53.606;9.872;2023-05-07T12:58:26;14.90;99.90
13806;DHT22;6974;53.606;9.872;2023-05-07T13:00:56;14.90;99.90
13806;DHT22;6974;53.606;9.872;2023-05-07T13:03:28;14.90;99.90
13806;DHT22;6974;53.606;9.872;2023-05-07T13:05:56;14.90;99.90
13806;DHT22;6974;53.606;9.872;2023-05-07T13:08:29;15.00;99.90
13806;DHT22;6974;53.606;9.872;2023-05-07T13:10:57;15.00;99.90
13806;DHT22;6974;53.606;9.872;2023-05-07T13:13:25;15.10;99.90
13806;DHT22;6974;53.606;9.872;2023-05-07T13:15:52;15.10;99.90
13806;DHT22;6974;53.606;9.872;2023-05-07T13:18:21;15.20;99.90
13806;DHT22;6974;53.606;9.872;2023-05-07T13:20:49;15.30;99.90
13806;DHT22;6974;53.606;9.872;2023-05-07T13:23:17;15.50;99.90
13806;DHT22;6974;53.606;9.872;2023-05-07T13:25:44;15.60;99.90
13806;DHT22;6974;53.606;9.872;2023-05-07T13:28:11;15.70;99.90
13806;DHT22;6974;53.606;9.872;2023-05-07T13:30:38;15.80;99.90
13806;DHT22;6974;53.606;9.872;2023-05-07T13:33:06;15.90;99.90
13806;DHT22;6974;53.606;9.872;2023-05-07T13:35:35;15.90;99.90
13806;DHT22;6974;53.606;9.872;2023-05-07T13:38:04;15.90;99.90
13806;DHT22;6974;53.606;9.872;2023-05-07T13:40:31;16.00;99.90
13806;DHT22;6974;53.606;9.872;2023-05-07T13:42:59;16.10;99.90
13806;DHT22;6974;53.606;9.872;2023-05-07T13:45:28;16.20;99.90
13806;DHT22;6974;53.606;9.872;2023-05-07T13:47:56;16.30;99.90
13806;DHT22;6974;53.606;9.872;2023-05-07T13:50:23;16.40;99.90
13806;DHT22;6974;53.606;9.872;2023-05-07T13:52:53;16.50;99.90
13806;DHT22;6974;53.606;9.872;2023-05-07T13:55:21;16.50;99.90
13806;DHT22;6974;53.606;9.872;2023-05-07T13:57:55;16.50;99.90
13806;DHT22;6974;53.606;9.872;2023-05-07T14:00:22;16.50;99.90
13806;DHT22;6974;53.606;9.872;2023-05-07T14:02:50;16.50;99.90
13806;DHT22;6974;53.606;9.872;2023-05-07T14:05:17;16.60;99.90
13806;DHT22;6974;53.606;9.872;2023-05-07T14:07:44;16.70;99.90
13806;DHT22;6974;53.606;9.872;2023-05-07T14:10:13;16.90;99.90
13806;DHT22;6974;53.606;9.872;2023-05-07T14:12:41;16.90;99.90
13806;DHT22;6974;53.606;9.872;2023-05-07T14:15:08;17.00;99.90
13806;DHT22;6974;53.606;9.872;2023-05-07T14:17:36;17.00;99.90
13806;DHT22;6974;53.606;9.872;2023-05-07T14:20:04;17.10;99.90
13806;DHT22;6974;53.606;9.872;2023-05-07T14:22:32;17.10;99.90
13806;DHT22;6974;53.606;9.872;2023-05-07T14:25:00;17.20;99.90
13806;DHT22;6974;53.606;9.872;2023-05-07T14:27:28;17.20;99.90
13806;DHT22;6974;53.606;9.872;2023-05-07T14:29:57;17.30;99.90
13806;DHT22;6974;53.606;9.872;2023-05-07T14:32:24;17.20;99.90
13806;DHT22;6974;53.606;9.872;2023-05-07T14:34:51;17.40;99.90
13806;DHT22;6974;53.606;9.872;2023-05-07T14:37:18;17.50;99.90
13806;DHT22;6974;53.606;9.872;2023-05-07T14:39:46;17.60;99.90
13806;DHT22;6974;53.606;9.872;2023-05-07T14:42:14;17.70;99.90
13806;DHT22;6974;53.606;9.872;2023-05-07T14:44:42;17.60;99.90
13806;DHT22;6974;53.606;9.872;2023-05-07T14:47:10;17.60;99.90
13806;DHT22;6974;53.606;9.872;2023-05-07T14:49:38;17.70;99.90
13806;DHT22;6974;53.606;9.872;2023-05-07T14:52:06;17.90;99.90
13806;DHT22;6974;53.606;9.872;2023-05-07T14:54:36;17.90;99.90
13806;DHT22;6974;53.606;9.872;2023-05-07T14:57:05;17.80;99.90
13806;DHT22;6974;53.606;9.872;2023-05-07T14:59:33;17.70;99.90
13806;DHT22;6974;53.606;9.872;2023-05-07T15:02:02;17.60;99.90
13806;DHT22;6974;53.606;9.872;2023-05-07T15:04:31;17.60;99.90
13806;DHT22;6974;53.606;9.872;2023-05-07T15:07:00;17.50;99.90
13806;DHT22;6974;53.606;9.872;2023-05-07T15:09:27;17.50;99.90
13806;DHT22;6974;53.606;9.872;2023-05-07T15:11:54;17.30;99.90
13806;DHT22;6974;53.606;9.872;2023-05-07T15:14:22;17.30;99.90
13806;DHT22;6974;53.606;9.872;2023-05-07T15:16:49;17.10;99.90
13806;DHT22;6974;53.606;9.872;2023-05-07T15:19:20;17.00;99.90
13806;DHT22;6974;53.606;9.872;2023-05-07T15:21:50;17.00;99.90
13806;DHT22;6974;53.606;9.872;2023-05-07T15:24:17;16.90;99.90
13806;DHT22;6974;53.606;9.872;2023-05-07T15:26:45;16.80;99.90
13806;DHT22;6974;53.606;9.872;2023-05-07T15:29:12;16.90;99.90
13806;DHT22;6974;53.606;9.872;2023-05-07T15:31:41;16.90;99.90
13806;DHT22;6974;53.606;9.872;2023-05-07T15:34:08;16.80;99.90
13806;DHT22;6974;53.606;9.872;2023-05-07T15:36:37;16.80;99.90
13806;DHT22;6974;53.606;9.872;2023-05-07T15:39:04;16.70;99.90
13806;DHT22;6974;53.606;9.872;2023-05-07T15:41:32;16.70;99.90
13806;DHT22;6974;53.606;9.872;2023-05-07T15:43:59;16.60;99.90
13806;DHT22;6974;53.606;9.872;2023-05-07T15:46:26;16.60;99.90
13806;DHT22;6974;53.606;9.872;2023-05-07T15:48:55;16.60;99.90
13806;DHT22;6974;53.606;9.872;2023-05-07T15:51:22;16.50;99.90
13806;DHT22;6974;53.606;9.872;2023-05-07T15:53:51;16.60;99.90
13806;DHT22;6974;53.606;9.872;2023-05-07T15:56:19;16.50;99.90